Time;durP1;ratioP1;P1;durP2;ratioP2;P2;SDS_P1;SDS_P2;PMS_P1;PMS_P2;Temp;Humidity;BMP_temperature;BMP_pressure;BME280_temperature;BME280_humidity;BME280_pressure;Samples;Min_cycle;Max_cycle;Signal;HPM_P1;HPM_P2
2024/01/05 00:00:31;;;;;;;9.43;5.33;;;;;;;5.76;70.87;95287.00;5067206;28;20180;-66
2024/01/05 00:02:59;;;;;;;8.77;4.40;;;;;;;5.91;70.69;95283.78;5067333;28;20186;-65
2024/01/05 00:05:28;;;;;;;8.93;5.03;;;;;;;6.10;69.94;95281.22;5067448;28;20196;-66
2024/01/05 00:07:53;;;;;;;7.93;5.00;;;;;;;5.98;70.35;95273.97;5066790;28;20440;-68
2024/01/05 00:10:18;;;;;;;10.10;6.27;;;;;;;5.94;70.20;95281.06;5067018;28;20979;-67
2024/01/05 00:12:44;;;;;;;8.80;5.37;;;;;;;5.89;70.42;95267.34;5066689;28;20188;-67
2024/01/05 00:15:12;;;;;;;9.20;4.87;;;;;;;5.87;70.17;95256.16;5067032;28;20277;-67
2024/01/05 00:17:38;;;;;;;11.80;4.77;;;;;;;5.84;69.76;95259.75;5067505;28;20846;-67
2024/01/05 00:20:06;;;;;;;8.73;6.13;;;;;;;5.84;70.50;95251.09;5068248;28;20488;-67
2024/01/05 00:22:32;;;;;;;10.37;5.03;;;;;;;5.91;70.17;95255.13;5067306;28;20166;-66
2024/01/05 00:24:57;;;;;;;7.00;5.03;;;;;;;5.85;70.19;95271.00;5066796;28;21111;-66
2024/01/05 00:27:22;;;;;;;6.77;5.03;;;;;;;5.98;70.03;95247.94;5066614;28;20172;-66
2024/01/05 00:29:48;;;;;;;5.90;4.63;;;;;;;5.92;70.08;95241.19;5066325;28;20748;-66
2024/01/05 00:32:13;;;;;;;9.93;4.40;;;;;;;5.93;70.12;95241.13;5066519;28;20166;-67
2024/01/05 00:34:39;;;;;;;7.93;4.80;;;;;;;5.78;70.93;95239.19;5066674;28;20170;-65
2024/01/05 00:37:04;;;;;;;8.07;5.10;;;;;;;5.66;70.83;95235.34;5068917;28;20185;-66
2024/01/05 00:39:30;;;;;;;6.80;5.10;;;;;;;5.59;70.84;95236.53;5068576;28;20174;-67
2024/01/05 00:41:55;;;;;;;5.70;4.80;;;;;;;5.24;72.28;95223.28;5068311;28;20170;-66
2024/01/05 00:44:21;;;;;;;5.90;5.00;;;;;;;5.12;72.46;95239.38;5068018;28;20174;-65
2024/01/05 00:46:46;;;;;;;8.17;4.90;;;;;;;5.20;72.57;95247.72;5067962;28;20194;-67
2024/01/05 00:49:12;;;;;;;8.93;5.43;;;;;;;5.43;71.05;95246.75;5066135;28;20195;-66
2024/01/05 00:51:37;;;;;;;11.23;5.33;;;;;;;5.56;71.17;95236.66;5066907;28;20719;-66
2024/01/05 00:54:03;;;;;;;11.27;5.20;;;;;;;5.58;70.91;95232.25;5068410;28;20170;-68
2024/01/05 00:56:28;;;;;;;7.80;5.10;;;;;;;5.67;70.63;95233.59;5070040;28;20265;-67
2024/01/05 00:58:53;;;;;;;6.13;5.53;;;;;;;5.68;70.18;95235.28;5073079;28;20238;-66
2024/01/05 01:01:19;;;;;;;8.57;4.90;;;;;;;5.67;70.17;95217.97;5074009;28;20170;-68
2024/01/05 01:03:44;;;;;;;8.47;5.20;;;;;;;5.45;70.56;95207.66;5073545;28;20203;-67
2024/01/05 01:06:10;;;;;;;6.37;4.63;;;;;;;5.42;70.78;95203.44;5075989;28;20206;-66
2024/01/05 01:08:35;;;;;;;7.30;4.70;;;;;;;5.22;71.35;95201.69;5074657;28;20208;-65
2024/01/05 01:11:01;;;;;;;8.13;4.90;;;;;;;4.97;73.29;95209.66;5068289;28;20219;-66
2024/01/05 01:13:27;;;;;;;8.67;5.73;;;;;;;5.06;72.74;95218.84;5065874;28;20184;-67
2024/01/05 01:15:52;;;;;;;11.43;5.50;;;;;;;5.24;71.46;95218.06;5066292;28;20527;-66
2024/01/05 01:18:18;;;;;;;5.83;4.70;;;;;;;5.20;72.09;95234.72;5065725;28;20170;-67
2024/01/05 01:20:43;;;;;;;5.87;4.93;;;;;;;5.41;71.17;95243.38;5065314;28;20633;-67
2024/01/05 01:23:08;;;;;;;9.77;5.37;;;;;;;5.51;70.87;95254.25;5063965;28;20268;-65
2024/01/05 01:25:34;;;;;;;7.30;5.27;;;;;;;5.60;70.23;95251.25;5066392;28;20830;-68
2024/01/05 01:27:59;;;;;;;9.80;5.37;;;;;;;5.71;70.01;95225.56;5067698;28;20315;-69
2024/01/05 01:30:25;;;;;;;7.33;5.60;;;;;;;5.45;71.21;95221.50;5067430;28;20261;-66
2024/01/05 01:32:50;;;;;;;6.97;5.80;;;;;;;5.39;70.93;95216.56;5067870;28;20166;-67
2024/01/05 01:35:15;;;;;;;9.70;5.17;;;;;;;5.16;71.45;95207.13;5067551;28;20189;-66
2024/01/05 01:37:41;;;;;;;6.60;5.90;;;;;;;5.20;71.59;95205.25;5067267;28;20170;-67
2024/01/05 01:40:08;;;;;;;9.03;5.90;;;;;;;5.13;71.33;95202.06;5065870;28;20177;-66
2024/01/05 01:42:33;;;;;;;8.53;6.60;;;;;;;5.11;71.11;95205.66;5069519;28;20259;-68
2024/01/05 01:44:58;;;;;;;6.83;6.13;;;;;;;5.15;71.25;95200.25;5068990;28;20436;-68
2024/01/05 01:47:24;;;;;;;7.07;6.27;;;;;;;5.39;70.50;95213.97;5067942;28;20170;-67
2024/01/05 01:49:50;;;;;;;15.10;6.50;;;;;;;5.51;70.08;95202.19;5075047;28;20194;-66
2024/01/05 01:52:16;;;;;;;9.73;5.40;;;;;;;5.68;69.73;95206.66;5079683;28;20781;-68
2024/01/05 01:54:42;;;;;;;6.90;5.30;;;;;;;5.68;69.42;95197.09;5080901;28;20181;-71
2024/01/05 01:57:08;;;;;;;10.47;6.27;;;;;;;5.62;69.93;95199.13;5062807;28;20476;-69
2024/01/05 01:59:34;;;;;;;9.17;5.70;;;;;;;5.67;69.46;95190.22;5069392;28;20432;-67
2024/01/05 02:01:59;;;;;;;8.73;5.60;;;;;;;5.64;69.54;95190.31;5068840;28;20166;-67
2024/01/05 02:04:26;;;;;;;9.23;6.37;;;;;;;5.61;69.18;95206.09;5071950;28;20209;-67
2024/01/05 02:06:51;;;;;;;5.83;4.90;;;;;;;5.65;69.79;95204.22;5071765;28;20190;-68
2024/01/05 02:09:18;;;;;;;6.33;5.37;;;;;;;5.64;69.89;95200.72;5069517;28;21039;-69
2024/01/05 02:11:43;;;;;;;6.97;4.80;;;;;;;5.68;69.63;95196.25;5071412;28;20281;-67
2024/01/05 02:14:09;;;;;;;4.23;3.83;;;;;;;5.72;69.38;95190.00;5071868;28;20519;-69
2024/01/05 02:16:34;;;;;;;6.07;4.97;;;;;;;5.68;69.58;95180.63;5070906;28;20269;-67
2024/01/05 02:19:00;;;;;;;5.43;4.70;;;;;;;5.52;69.58;95170.88;5071654;28;20297;-67
2024/01/05 02:21:30;;;;;;;5.53;4.97;;;;;;;4.99;71.96;95157.59;5071253;28;20652;-66
2024/01/05 02:23:56;;;;;;;5.30;4.80;;;;;;;4.45;73.34;95150.25;5069724;28;20178;-66
2024/01/05 02:26:21;;;;;;;8.27;5.83;;;;;;;4.42;73.26;95134.78;5070768;28;20436;-68
2024/01/05 02:28:47;;;;;;;6.60;5.23;;;;;;;4.21;74.49;95138.25;5070446;28;20501;-68
2024/01/05 02:31:15;;;;;;;9.70;5.37;;;;;;;4.41;73.75;95125.28;5069813;28;20669;-68
2024/01/05 02:33:41;;;;;;;6.53;4.70;;;;;;;4.48;73.89;95127.66;5069732;28;20277;-68
2024/01/05 02:36:07;;;;;;;6.80;5.03;;;;;;;4.67;72.84;95123.38;5069635;28;20516;-68
2024/01/05 02:38:32;;;;;;;11.43;6.87;;;;;;;4.99;71.94;95118.59;5069563;28;20209;-68
2024/01/05 02:40:59;;;;;;;8.37;4.80;;;;;;;4.77;72.05;95116.91;5070058;28;20185;-68
2024/01/05 02:43:25;;;;;;;8.07;4.60;;;;;;;4.60;73.21;95114.16;5070341;28;20193;-67
2024/01/05 02:45:50;;;;;;;9.30;5.20;;;;;;;5.05;71.47;95111.38;5061146;28;20770;-67
2024/01/05 02:48:16;;;;;;;6.93;4.67;;;;;;;5.17;71.28;95127.34;5050555;28;20240;-70
2024/01/05 02:50:41;;;;;;;7.63;4.70;;;;;;;5.27;71.20;95111.31;5049771;28;20173;-68
2024/01/05 02:53:06;;;;;;;11.87;5.47;;;;;;;5.15;71.35;95097.97;5049615;28;20171;-67
2024/01/05 02:55:32;;;;;;;6.50;5.20;;;;;;;4.89;72.42;95112.97;5049359;28;20272;-68
2024/01/05 02:57:57;;;;;;;6.40;4.80;;;;;;;4.95;72.11;95119.63;5049883;28;20174;-67
2024/01/05 03:00:23;;;;;;;6.13;4.20;;;;;;;4.91;72.08;95110.28;5047701;28;20588;-69
2024/01/05 03:02:48;;;;;;;8.40;4.70;;;;;;;4.96;71.48;95121.31;5051516;28;20390;-67
2024/01/05 03:05:13;;;;;;;6.13;4.40;;;;;;;5.07;71.40;95095.72;5069359;28;20970;-66
2024/01/05 03:07:40;;;;;;;5.20;4.70;;;;;;;5.15;71.13;95106.63;5069584;28;20162;-69
2024/01/05 03:10:07;;;;;;;9.30;5.73;;;;;;;5.17;71.20;95107.38;5070053;28;20224;-67
2024/01/05 03:12:32;;;;;;;6.73;5.63;;;;;;;5.20;71.12;95094.28;5069560;28;20424;-68
2024/01/05 03:14:57;;;;;;;8.27;5.20;;;;;;;5.33;70.41;95091.97;5069455;28;20486;-67
2024/01/05 03:17:23;;;;;;;7.33;6.30;;;;;;;5.37;70.62;95093.53;5070315;28;20176;-68
2024/01/05 03:19:48;;;;;;;5.87;4.73;;;;;;;5.48;70.24;95082.63;5071591;28;20699;-67
2024/01/05 03:22:13;;;;;;;6.70;5.50;;;;;;;5.53;70.27;95085.88;5071877;28;20174;-68
2024/01/05 03:24:40;;;;;;;5.90;5.30;;;;;;;5.44;70.20;95089.75;5072379;28;20256;-68
2024/01/05 03:27:05;;;;;;;5.73;5.17;;;;;;;5.36;70.49;95083.19;5072012;28;20204;-68
2024/01/05 03:29:30;;;;;;;9.40;5.50;;;;;;;5.52;70.04;95069.41;5072007;28;21283;-67
2024/01/05 03:31:56;;;;;;;5.50;4.73;;;;;;;5.23;71.01;95064.69;5072487;28;20253;-67
2024/01/05 03:34:22;;;;;;;10.80;5.40;;;;;;;5.43;70.26;95071.59;5071337;28;20198;-67
2024/01/05 03:36:47;;;;;;;10.43;5.13;;;;;;;5.56;69.51;95069.28;5070100;28;20186;-68
2024/01/05 03:39:12;;;;;;;11.30;4.80;;;;;;;5.49;69.54;95068.72;5069390;28;20621;-69
2024/01/05 03:41:38;;;;;;;8.57;4.87;;;;;;;5.55;69.37;95059.78;5068436;28;20198;-68
2024/01/05 03:44:04;;;;;;;8.20;4.50;;;;;;;5.51;69.30;95061.69;5068998;28;20185;-67
2024/01/05 03:46:29;;;;;;;4.30;3.83;;;;;;;5.55;69.42;95057.19;5068634;28;20281;-68
2024/01/05 03:48:55;;;;;;;7.20;4.20;;;;;;;5.46;69.48;95059.28;5067375;28;20209;-68
2024/01/05 03:51:20;;;;;;;5.83;5.23;;;;;;;5.51;69.59;95059.09;5069169;28;20196;-68
2024/01/05 03:53:45;;;;;;;8.97;4.73;;;;;;;5.60;69.12;95058.69;5067837;28;20251;-68
2024/01/05 03:56:11;;;;;;;11.37;4.43;;;;;;;5.63;69.25;95062.88;5068107;28;20194;-67
2024/01/05 03:58:36;;;;;;;11.03;4.67;;;;;;;5.60;69.14;95066.47;5070710;28;20208;-67
2024/01/05 04:01:02;;;;;;;7.13;4.47;;;;;;;5.63;69.20;95068.09;5072929;28;20648;-68
2024/01/05 04:03:28;;;;;;;7.77;4.43;;;;;;;5.46;70.05;95077.50;5073677;28;20239;-68
2024/01/05 04:05:53;;;;;;;5.03;4.40;;;;;;;5.48;69.64;95075.69;5074957;28;20440;-67
2024/01/05 04:08:19;;;;;;;8.50;7.80;;;;;;;5.49;70.00;95073.91;5074545;28;20194;-67
2024/01/05 04:10:44;;;;;;;6.97;5.50;;;;;;;5.54;69.63;95076.31;5075522;28;20269;-67
2024/01/05 04:13:09;;;;;;;7.30;4.80;;;;;;;5.41;70.40;95068.19;5070616;28;20174;-65
2024/01/05 04:15:36;;;;;;;6.27;4.93;;;;;;;5.40;70.09;95061.31;5067194;28;20354;-68
2024/01/05 04:18:02;;;;;;;5.13;4.37;;;;;;;5.25;70.70;95055.91;5069222;28;20173;-67
2024/01/05 04:20:27;;;;;;;5.77;4.70;;;;;;;5.40;69.91;95063.94;5069022;28;20412;-67
2024/01/05 04:22:52;;;;;;;11.57;5.03;;;;;;;5.40;70.08;95082.97;5069849;28;20269;-68
2024/01/05 04:25:18;;;;;;;9.30;5.70;;;;;;;5.39;70.00;95090.88;5068805;28;20673;-67
2024/01/05 04:27:43;;;;;;;11.03;4.77;;;;;;;5.34;70.40;95092.81;5069280;28;20312;-66
2024/01/05 04:30:09;;;;;;;7.63;5.13;;;;;;;5.37;69.59;95075.31;5068993;28;20174;-67
2024/01/05 04:32:35;;;;;;;8.30;5.30;;;;;;;5.32;70.42;95074.69;5067941;28;20182;-67
2024/01/05 04:35:00;;;;;;;5.63;4.77;;;;;;;5.36;69.95;95059.75;5068205;28;20417;-67
2024/01/05 04:37:26;;;;;;;6.20;5.27;;;;;;;5.38;69.81;95069.19;5068095;28;20177;-68
2024/01/05 04:39:51;;;;;;;5.90;5.30;;;;;;;5.28;69.89;95052.31;5068883;28;20177;-67
2024/01/05 04:42:16;;;;;;;8.83;4.93;;;;;;;5.17;70.43;95044.97;5068941;28;20174;-69
2024/01/05 04:44:42;;;;;;;8.40;5.00;;;;;;;5.05;70.94;95029.94;5068570;28;20209;-67
2024/01/05 04:47:07;;;;;;;5.60;4.30;;;;;;;5.07;70.92;95043.72;5049233;28;20199;-69
2024/01/05 04:49:33;;;;;;;7.90;5.30;;;;;;;4.82;71.91;95036.16;5048320;28;20199;-67
2024/01/05 04:52:00;;;;;;;8.37;5.00;;;;;;;4.67;72.61;95043.66;5047217;28;20179;-67
2024/01/05 04:54:25;;;;;;;6.23;4.87;;;;;;;5.03;71.69;95047.34;5048678;28;20492;-66
2024/01/05 04:56:51;;;;;;;6.70;4.57;;;;;;;4.96;71.69;95040.72;5048862;28;20428;-68
2024/01/05 04:59:16;;;;;;;6.23;4.90;;;;;;;5.10;71.12;95027.97;5047986;28;20171;-67
2024/01/05 05:01:42;;;;;;;7.27;5.27;;;;;;;5.09;71.67;95026.28;5048500;28;20623;-66
2024/01/05 05:04:08;;;;;;;7.13;5.87;;;;;;;5.03;71.26;95018.75;5062144;28;20189;-68
2024/01/05 05:06:33;;;;;;;7.53;5.10;;;;;;;5.23;71.16;95029.13;5067388;28;20773;-67
2024/01/05 05:08:58;;;;;;;6.50;5.40;;;;;;;5.19;70.93;95048.34;5067951;28;20886;-66
2024/01/05 05:11:24;;;;;;;5.40;4.90;;;;;;;5.18;71.34;95023.28;5068380;28;20261;-67
2024/01/05 05:13:49;;;;;;;9.73;5.37;;;;;;;5.13;71.01;95037.41;5068359;28;20257;-67
2024/01/05 05:16:14;;;;;;;6.73;5.30;;;;;;;5.07;71.17;95036.75;5068029;28;20193;-67
2024/01/05 05:18:40;;;;;;;8.10;5.37;;;;;;;5.12;71.14;95030.50;5067426;28;20257;-67
2024/01/05 05:21:06;;;;;;;8.73;5.77;;;;;;;5.12;71.18;95026.13;5067302;28;20239;-68
2024/01/05 05:23:31;;;;;;;10.03;5.60;;;;;;;5.15;71.04;95023.44;5067871;28;20170;-67
2024/01/05 05:25:57;;;;;;;8.63;5.67;;;;;;;5.22;70.66;95019.63;5067441;28;20197;-65
2024/01/05 05:28:23;;;;;;;7.40;4.80;;;;;;;5.39;70.04;95020.63;5067543;28;20237;-67
2024/01/05 05:30:49;;;;;;;5.90;5.07;;;;;;;5.19;70.61;95009.34;5067197;28;20412;-68
2024/01/05 05:33:14;;;;;;;9.20;5.30;;;;;;;5.26;70.30;95013.34;5068109;28;20173;-69
2024/01/05 05:35:39;;;;;;;8.80;5.33;;;;;;;5.22;70.60;95029.16;5067941;28;20436;-67
2024/01/05 05:38:06;;;;;;;7.63;4.83;;;;;;;5.32;70.58;95037.44;5067632;28;20221;-68
2024/01/05 05:40:32;;;;;;;5.20;4.70;;;;;;;5.30;70.28;95030.53;5056799;28;20185;-67
2024/01/05 05:42:57;;;;;;;5.33;4.80;;;;;;;5.21;70.66;95030.09;5054458;28;21026;-67
2024/01/05 05:45:23;;;;;;;8.03;5.33;;;;;;;5.28;70.84;95034.09;5050432;28;20460;-66
2024/01/05 05:47:48;;;;;;;5.40;4.90;;;;;;;5.28;70.74;95044.50;5047247;28;20248;-67
2024/01/05 05:50:14;;;;;;;6.13;5.53;;;;;;;5.32;70.52;95046.06;5063342;28;20182;-65
2024/01/05 05:52:40;;;;;;;5.43;4.67;;;;;;;5.35;70.46;95042.50;5064010;28;20170;-67
2024/01/05 05:55:06;;;;;;;8.20;5.37;;;;;;;5.28;70.99;95036.72;5065807;28;20190;-66
2024/01/05 05:57:32;;;;;;;6.90;5.60;;;;;;;5.28;71.00;95039.31;5055455;28;20429;-67
2024/01/05 05:59:58;;;;;;;8.50;5.57;;;;;;;5.28;71.04;95040.16;5052632;28;20429;-68
2024/01/05 06:02:24;;;;;;;6.40;4.77;;;;;;;5.36;70.30;95034.59;5056708;28;20293;-66
2024/01/05 06:04:49;;;;;;;6.53;5.30;;;;;;;5.24;71.04;95040.34;5055962;28;20519;-70
2024/01/05 06:07:15;;;;;;;7.27;5.30;;;;;;;5.20;71.35;95038.81;5053138;28;20236;-68
2024/01/05 06:09:40;;;;;;;7.77;4.57;;;;;;;5.36;70.45;95025.94;5054256;28;20198;-68
2024/01/05 06:12:06;;;;;;;11.30;5.47;;;;;;;5.41;70.01;95029.19;5055972;28;20175;-66
2024/01/05 06:14:31;;;;;;;7.33;5.03;;;;;;;5.53;69.79;95033.84;5047965;28;20171;-68
2024/01/05 06:16:56;;;;;;;8.37;4.40;;;;;;;5.37;70.20;95031.09;5047805;28;20223;-68
2024/01/05 06:19:22;;;;;;;5.87;5.20;;;;;;;5.43;69.98;95027.34;5054946;28;20167;-68
2024/01/05 06:21:47;;;;;;;7.40;5.57;;;;;;;5.43;69.61;95043.84;5064067;28;20173;-67
2024/01/05 06:24:13;;;;;;;7.23;5.00;;;;;;;5.41;70.14;95044.78;5069338;28;20398;-68
2024/01/05 06:26:38;;;;;;;9.80;5.77;;;;;;;5.43;70.14;95042.97;5076479;28;20198;-68
2024/01/05 06:29:04;;;;;;;12.00;5.70;;;;;;;5.52;69.93;95039.94;5051190;28;20298;-68
2024/01/05 06:31:29;;;;;;;7.40;5.73;;;;;;;5.52;69.71;95051.19;5059681;28;20194;-68
2024/01/05 06:33:54;;;;;;;9.43;4.77;;;;;;;5.50;69.42;95050.44;5072947;28;20643;-67
2024/01/05 06:36:20;;;;;;;7.90;4.60;;;;;;;5.47;70.00;95058.38;5058335;28;20276;-67
2024/01/05 06:38:45;;;;;;;5.53;4.77;;;;;;;5.38;70.23;95063.97;5068337;28;20264;-67
2024/01/05 06:41:11;;;;;;;7.00;5.73;;;;;;;5.49;69.94;95066.13;5064897;28;20188;-67
2024/01/05 06:43:36;;;;;;;12.70;5.80;;;;;;;5.43;70.27;95063.78;5048530;28;20179;-69
2024/01/05 06:46:01;;;;;;;7.30;4.63;;;;;;;5.48;69.94;95065.28;5055867;28;20803;-69
2024/01/05 06:48:27;;;;;;;13.43;6.93;;;;;;;5.46;70.37;95059.28;5059220;28;20640;-67
2024/01/05 06:50:52;;;;;;;8.17;6.00;;;;;;;5.49;69.88;95061.75;5074825;28;20181;-68
2024/01/05 06:53:17;;;;;;;5.93;4.17;;;;;;;7.91;92.87;95052.31;5075385;28;20181;-67
2024/01/05 06:55:43;;;;;;;7.70;5.03;;;;;;;9.70;79.26;95028.72;5059094;28;20201;-67
2024/01/05 06:58:08;;;;;;;5.17;4.67;;;;;;;10.25;70.70;95020.91;5059731;28;20294;-65
2024/01/05 07:00:33;;;;;;;6.13;5.60;;;;;;;8.99;59.37;95019.09;5065281;28;20652;-66
2024/01/05 07:02:59;;;;;;;8.50;5.20;;;;;;;7.19;64.16;95033.53;5060316;28;20653;-68
2024/01/05 07:05:24;;;;;;;8.33;5.63;;;;;;;6.67;65.68;95031.84;5079140;28;20201;-68
2024/01/05 07:07:50;;;;;;;6.50;5.17;;;;;;;6.40;66.90;95034.03;5073998;28;20286;-67
2024/01/05 07:10:15;;;;;;;11.17;4.77;;;;;;;6.07;67.81;95027.00;5065189;28;20190;-68
2024/01/05 07:12:40;;;;;;;8.80;5.40;;;;;;;5.97;68.42;95033.53;5069693;28;20177;-68
2024/01/05 07:15:06;;;;;;;6.97;4.80;;;;;;;5.79;69.02;95027.44;5068886;28;20717;-67
2024/01/05 07:17:32;;;;;;;6.03;4.90;;;;;;;5.68;69.73;95019.28;5070589;28;20270;-70
2024/01/05 07:19:57;;;;;;;6.10;5.60;;;;;;;5.63;70.27;95029.91;5071679;28;20430;-67
2024/01/05 07:22:23;;;;;;;9.70;5.60;;;;;;;5.80;69.50;95020.44;5068655;28;20181;-67
2024/01/05 07:24:49;;;;;;;14.27;5.53;;;;;;;5.63;69.80;95024.69;5058532;28;20637;-67
2024/01/05 07:27:16;;;;;;;6.90;5.00;;;;;;;5.50;70.18;95026.16;5055149;28;20533;-68
2024/01/05 07:29:42;;;;;;;6.13;5.53;;;;;;;5.52;70.28;95032.97;5071258;28;20930;-67
2024/01/05 07:32:07;;;;;;;8.37;5.47;;;;;;;5.52;70.26;95051.19;5057993;28;20432;-67
2024/01/05 07:34:33;;;;;;;9.27;5.17;;;;;;;5.59;70.18;95041.34;5075974;28;20669;-69
2024/01/05 07:36:58;;;;;;;5.30;4.80;;;;;;;5.56;70.00;95040.66;5077560;28;20201;-67
2024/01/05 07:39:24;;;;;;;8.60;5.60;;;;;;;5.66;69.83;95040.16;5057371;28;20229;-67
2024/01/05 07:41:51;;;;;;;5.40;4.90;;;;;;;5.59;70.06;95036.16;5063316;28;20198;-68
2024/01/05 07:44:16;;;;;;;10.43;4.83;;;;;;;5.62;70.27;95037.75;5061326;28;20437;-68
2024/01/05 07:46:42;;;;;;;6.90;5.40;;;;;;;5.67;70.31;95031.44;5067874;28;20208;-68
2024/01/05 07:49:08;;;;;;;6.10;5.00;;;;;;;5.74;69.86;95034.63;5065476;28;20202;-69
2024/01/05 07:51:34;;;;;;;14.93;5.73;;;;;;;5.60;70.02;95040.44;5067055;28;20518;-68
2024/01/05 07:53:59;;;;;;;6.97;5.70;;;;;;;5.53;70.72;95036.44;5059482;28;21447;-67
2024/01/05 07:56:24;;;;;;;10.23;5.07;;;;;;;5.62;70.32;95029.97;5063217;28;20273;-67
2024/01/05 07:58:50;;;;;;;11.50;5.23;;;;;;;5.50;71.07;95036.56;5060941;28;20266;-68
2024/01/05 08:01:20;;;;;;;10.60;5.43;;;;;;;5.62;70.49;95033.44;5060612;28;20244;-68
2024/01/05 08:03:46;;;;;;;5.90;5.30;;;;;;;5.63;70.59;95036.88;5051395;28;20281;-68
2024/01/05 08:06:19;;;;;;;8.00;6.07;;;;;;;5.65;70.50;95035.88;5056260;28;20483;-69
2024/01/05 08:08:45;;;;;;;8.10;5.53;;;;;;;5.68;70.54;95046.13;5051676;28;20464;-65
2024/01/05 08:11:11;;;;;;;6.37;5.23;;;;;;;5.77;70.03;95042.28;5054660;28;20432;-67
2024/01/05 08:13:37;;;;;;;9.70;6.20;;;;;;;5.63;70.37;95029.06;5058486;28;20523;-68
2024/01/05 08:16:03;;;;;;;9.77;6.00;;;;;;;5.69;70.20;95029.63;5061712;28;20239;-68
2024/01/05 08:18:28;;;;;;;6.80;6.00;;;;;;;5.81;70.43;95027.34;5058092;28;20178;-69
2024/01/05 08:20:54;;;;;;;15.30;6.40;;;;;;;5.71;70.02;95025.16;5054284;28;20433;-67
2024/01/05 08:23:19;;;;;;;8.63;6.30;;;;;;;5.86;69.63;95028.00;5056970;28;20765;-67
2024/01/05 08:25:45;;;;;;;11.43;5.90;;;;;;;5.92;69.82;95027.69;5056072;28;20209;-67
2024/01/05 08:28:10;;;;;;;10.67;5.53;;;;;;;5.93;69.45;95030.22;5059212;28;20206;-68
2024/01/05 08:30:36;;;;;;;7.90;6.70;;;;;;;5.93;69.69;95029.38;5058457;28;20661;-67
2024/01/05 08:33:01;;;;;;;7.97;6.80;;;;;;;6.04;69.35;95021.91;5058191;28;20230;-68
2024/01/05 08:35:28;;;;;;;13.20;6.83;;;;;;;6.05;69.22;95021.00;5062097;28;20202;-66
2024/01/05 08:37:53;;;;;;;13.37;5.93;;;;;;;6.03;69.24;95025.44;5060369;28;20197;-64
2024/01/05 08:40:18;;;;;;;11.27;5.93;;;;;;;6.19;68.88;95022.06;5066093;28;20431;-67
2024/01/05 08:42:45;;;;;;;8.03;6.17;;;;;;;6.32;68.54;95020.56;5057311;28;20641;-67
2024/01/05 08:45:11;;;;;;;10.60;6.33;;;;;;;6.32;68.28;95016.19;5058170;28;20289;-66
2024/01/05 08:47:36;;;;;;;8.20;6.30;;;;;;;6.40;68.16;95018.41;5059963;28;20445;-64
2024/01/05 08:50:02;;;;;;;8.43;5.50;;;;;;;6.41;68.41;95011.47;5057791;28;20211;-66
2024/01/05 08:52:27;;;;;;;9.77;6.13;;;;;;;6.57;67.25;95005.41;5054572;28;20183;-68
2024/01/05 08:54:53;;;;;;;9.43;6.70;;;;;;;6.79;66.29;95012.13;5050626;28;20186;-64
2024/01/05 08:57:18;;;;;;;9.70;7.17;;;;;;;6.93;66.54;94999.22;5059232;28;20638;-66
2024/01/05 08:59:44;;;;;;;7.73;5.80;;;;;;;7.03;65.79;94989.16;5060679;28;20182;-66
2024/01/05 09:02:09;;;;;;;6.10;5.50;;;;;;;7.24;64.79;94991.56;5057543;28;20265;-64
2024/01/05 09:04:34;;;;;;;8.23;6.00;;;;;;;7.19;64.73;94995.22;5055394;28;20179;-66
2024/01/05 09:07:00;;;;;;;6.97;6.30;;;;;;;7.22;64.26;95002.88;5054184;28;20289;-66
2024/01/05 09:09:25;;;;;;;6.73;4.97;;;;;;;7.25;64.46;94995.81;5054585;28;20768;-66
2024/01/05 09:11:51;;;;;;;6.80;5.27;;;;;;;7.33;63.90;95009.31;5054490;28;20850;-64
2024/01/05 09:14:16;;;;;;;7.30;4.80;;;;;;;7.45;63.46;95007.81;5058913;28;20187;-66
2024/01/05 09:16:41;;;;;;;6.07;4.60;;;;;;;7.36;63.90;95001.31;5050578;28;20202;-63
2024/01/05 09:19:07;;;;;;;12.37;6.60;;;;;;;7.34;64.50;95004.00;5056722;28;20177;-65
2024/01/05 09:21:33;;;;;;;9.80;5.60;;;;;;;7.43;64.13;95005.28;5063426;28;20700;-65
2024/01/05 09:23:58;;;;;;;10.50;5.60;;;;;;;7.48;63.08;95007.66;5054640;28;20175;-64
2024/01/05 09:26:23;;;;;;;8.07;5.70;;;;;;;7.66;63.25;95011.03;5051060;28;20198;-65
2024/01/05 09:28:50;;;;;;;5.47;4.87;;;;;;;7.68;63.02;95014.38;5057798;28;20202;-64
2024/01/05 09:31:16;;;;;;;5.60;5.07;;;;;;;7.62;63.29;95010.34;5053798;28;20924;-65
2024/01/05 09:33:41;;;;;;;6.33;5.30;;;;;;;7.64;62.83;95024.16;5058097;28;20440;-67
2024/01/05 09:36:07;;;;;;;9.13;5.90;;;;;;;7.73;63.05;95023.66;5055453;28;20194;-67
2024/01/05 09:38:32;;;;;;;12.20;5.33;;;;;;;7.73;63.39;95018.44;5053611;28;20192;-67
2024/01/05 09:40:58;;;;;;;7.20;5.40;;;;;;;7.83;62.96;95019.63;5058689;28;20793;-65
2024/01/05 09:43:24;;;;;;;7.43;5.37;;;;;;;7.86;62.79;95023.81;5052526;28;20243;-65
2024/01/05 09:45:51;;;;;;;4.70;4.20;;;;;;;7.76;62.69;95017.44;5063799;28;20198;-67
2024/01/05 09:48:21;;;;;;;5.80;4.50;;;;;;;7.79;62.17;95015.47;5056068;28;20464;-65
2024/01/05 09:50:51;;;;;;;8.27;4.87;;;;;;;7.76;63.09;95022.66;5067666;28;20797;-64
2024/01/05 09:53:17;;;;;;;6.20;4.30;;;;;;;7.66;63.90;95011.88;5051570;28;20431;-67
2024/01/05 09:55:46;;;;;;;7.90;5.40;;;;;;;7.82;63.43;95006.66;5057431;28;20501;-67
2024/01/05 09:58:13;;;;;;;7.87;5.73;;;;;;;7.84;63.25;95018.72;5056647;28;20850;-68
2024/01/05 10:00:42;;;;;;;6.37;4.90;;;;;;;7.99;62.22;95013.56;5056000;28;20515;-67
2024/01/05 10:03:11;;;;;;;9.23;5.70;;;;;;;7.93;63.06;95019.94;5061441;28;20520;-67
2024/01/05 10:05:37;;;;;;;6.13;4.47;;;;;;;7.90;62.55;95027.13;5062376;28;20456;-67
2024/01/05 10:08:04;;;;;;;7.63;5.10;;;;;;;7.88;62.84;95015.91;5057718;28;20511;-68
2024/01/05 10:10:52;;;;;;;8.13;4.87;;;;;;;7.92;63.02;95000.00;5053329;28;20191;-65
2024/01/05 10:13:18;;;;;;;7.70;4.80;;;;;;;7.86;63.01;95010.75;5054247;28;21269;-66
2024/01/05 10:16:00;;;;;;;7.90;5.57;;;;;;;7.83;63.15;95009.16;5055042;28;20462;-65
2024/01/05 10:18:29;;;;;;;19.03;6.80;;;;;;;7.91;63.77;95007.91;5053281;28;20187;-67
2024/01/05 10:20:55;;;;;;;8.70;5.60;;;;;;;7.79;63.13;95012.88;5051301;28;20441;-66
2024/01/05 10:23:21;;;;;;;8.70;5.67;;;;;;;7.83;63.64;95003.94;5052618;28;20447;-66
2024/01/05 10:25:47;;;;;;;7.23;5.50;;;;;;;7.79;63.11;95002.41;5056994;28;20811;-64
2024/01/05 10:28:32;;;;;;;5.80;5.10;;;;;;;7.81;64.20;94987.50;5054059;28;20707;-67
2024/01/05 10:31:12;;;;;;;12.87;6.13;;;;;;;7.92;64.22;94992.16;5061844;28;20170;-68
2024/01/05 10:33:48;;;;;;;9.90;5.77;;;;;;;8.01;63.56;94990.81;5060746;28;20433;-68
2024/01/05 10:36:17;;;;;;;5.37;4.77;;;;;;;7.98;63.84;94994.41;5067078;28;20455;-67
2024/01/05 10:38:44;;;;;;;9.47;4.93;;;;;;;7.91;63.10;94997.44;5050118;28;20443;-66
2024/01/05 10:41:09;;;;;;;6.67;5.00;;;;;;;7.90;63.64;94988.78;5060320;28;20446;-65
2024/01/05 10:43:37;;;;;;;9.83;4.87;;;;;;;8.01;63.85;94998.63;5056528;28;20443;-67
2024/01/05 10:46:04;;;;;;;10.37;4.30;;;;;;;7.91;63.39;94989.63;5058763;28;20772;-65
2024/01/05 10:48:31;;;;;;;7.97;4.97;;;;;;;7.94;63.22;94992.06;5070539;28;20869;-66
2024/01/05 10:50:58;;;;;;;22.13;5.60;;;;;;;8.10;62.66;94994.66;5064434;28;20439;-68
2024/01/05 10:53:25;;;;;;;5.80;3.93;;;;;;;7.98;63.45;94985.72;5061105;28;20433;-68
2024/01/05 10:55:50;;;;;;;8.80;4.47;;;;;;;7.94;63.15;94984.25;5061465;28;20468;-65
2024/01/05 10:58:16;;;;;;;10.07;4.33;;;;;;;8.00;63.55;94983.88;5064327;28;20429;-67
2024/01/05 11:00:41;;;;;;;12.00;4.40;;;;;;;7.75;64.08;94985.25;5070687;28;20189;-66
2024/01/05 11:03:10;;;;;;;18.97;5.40;;;;;;;7.79;64.28;94980.69;5062608;28;20756;-63
2024/01/05 11:05:39;;;;;;;6.33;4.40;;;;;;;7.90;63.71;94988.78;5064174;28;20214;-64
2024/01/05 11:08:05;;;;;;;20.03;4.90;;;;;;;7.68;65.57;94989.16;5065328;28;20932;-66
2024/01/05 11:10:40;;;;;;;10.53;4.60;;;;;;;7.79;64.63;94981.53;5068524;28;20440;-67
2024/01/05 11:13:30;;;;;;;4.43;3.70;;;;;;;7.77;63.88;94988.63;5064921;28;21787;-66
2024/01/05 11:16:19;;;;;;;7.97;4.20;;;;;;;7.66;64.65;94990.16;5054841;28;20557;-67
2024/01/05 11:19:11;;;;;;;5.63;3.93;;;;;;;7.59;65.19;94989.66;5062117;28;20448;-65
2024/01/05 11:22:10;;;;;;;5.03;4.40;;;;;;;7.54;65.22;94987.28;5058212;28;20445;-66
2024/01/05 11:24:37;;;;;;;5.80;4.43;;;;;;;7.63;65.40;94980.72;5059410;28;20449;-65
2024/01/05 11:27:30;;;;;;;10.50;5.57;;;;;;;7.74;64.85;94973.13;5056738;28;20452;-66
2024/01/05 11:29:57;;;;;;;5.90;4.70;;;;;;;7.88;65.33;94968.91;5072195;28;20865;-67
2024/01/05 11:32:45;;;;;;;5.73;4.10;;;;;;;7.81;64.83;94964.00;5068663;28;20433;-66
2024/01/05 11:35:36;;;;;;;5.13;3.90;;;;;;;7.90;64.39;94951.38;5052279;28;20484;-66
2024/01/05 11:38:23;;;;;;;5.97;4.33;;;;;;;7.89;63.94;94945.31;5054565;28;20443;-66